createdAt,value
2016-12-08T00:00:15.417Z,0
2016-12-08T00:01:40.689Z,0
2016-12-08T00:02:51.388Z,0
2016-12-08T00:04:02.382Z,0
2016-12-08T00:05:12.891Z,0
2016-12-08T00:06:23.391Z,0
2016-12-08T00:07:33.890Z,0
2016-12-08T00:08:58.922Z,0
2016-12-08T00:10:09.434Z,0
2016-12-08T00:11:19.945Z,0
2016-12-08T00:12:30.452Z,0
2016-12-08T00:13:41.158Z,0
2016-12-08T00:14:51.651Z,0
2016-12-08T00:16:16.697Z,0
2016-12-08T00:17:27.218Z,0
2016-12-08T00:18:37.727Z,0
2016-12-08T00:19:48.434Z,0
2016-12-08T00:20:58.939Z,0
2016-12-08T00:22:09.448Z,0
2016-12-08T00:23:19.951Z,0
2016-12-08T00:24:31.164Z,0
2016-12-08T00:25:41.684Z,0
2016-12-08T00:26:52.186Z,0
2016-12-08T00:28:02.696Z,0
2016-12-08T00:29:27.936Z,0
2016-12-08T00:30:38.437Z,0
2016-12-08T00:31:48.940Z,0
2016-12-08T00:32:59.442Z,0
2016-12-08T00:34:09.941Z,0
2016-12-08T00:35:20.539Z,0
2016-12-08T00:36:30.931Z,0
2016-12-08T00:37:41.315Z,0
2016-12-08T00:38:51.699Z,0
2016-12-08T00:40:02.275Z,0
2016-12-08T00:41:12.858Z,0
2016-12-08T00:42:23.236Z,0
2016-12-08T00:43:33.626Z,0
2016-12-08T00:44:44.020Z,0
2016-12-08T00:46:09.159Z,0
2016-12-08T00:47:19.532Z,0
2016-12-08T00:48:44.483Z,0
2016-12-08T00:49:54.866Z,0
2016-12-08T00:51:05.725Z,0
2016-12-08T00:52:16.106Z,0
2016-12-08T00:53:26.486Z,0
2016-12-08T00:54:37.279Z,0
2016-12-08T00:55:47.675Z,0
2016-12-08T00:56:58.086Z,0
2016-12-08T00:58:23.233Z,0
2016-12-08T00:59:33.632Z,0
2016-12-08T01:00:44.017Z,0
2016-12-08T01:01:54.611Z,0
2016-12-08T01:03:05.194Z,0
2016-12-08T01:04:15.588Z,0
2016-12-08T01:05:26.368Z,0
2016-12-08T01:06:36.769Z,0
2016-12-08T01:07:47.164Z,0
2016-12-08T01:08:57.551Z,0
2016-12-08T01:10:07.991Z,0
2016-12-08T01:11:18.399Z,0
2016-12-08T01:12:28.804Z,0
2016-12-08T01:13:39.595Z,0
2016-12-08T01:14:50.000Z,0
2016-12-08T01:16:00.381Z,0
2016-12-08T01:17:10.784Z,0
2016-12-08T01:18:21.227Z,0
2016-12-08T01:19:32.095Z,0
2016-12-08T01:20:42.691Z,0
2016-12-08T01:21:53.086Z,0
2016-12-08T01:23:03.475Z,0
2016-12-08T01:24:13.879Z,0
2016-12-08T01:25:24.266Z,0
2016-12-08T01:26:34.870Z,0
2016-12-08T01:27:45.302Z,0
2016-12-08T01:28:55.704Z,0
2016-12-08T01:30:06.112Z,0
2016-12-08T01:31:16.518Z,0
2016-12-08T01:32:26.923Z,0
2016-12-08T01:33:37.338Z,0
2016-12-08T01:34:47.731Z,0
2016-12-08T01:35:58.136Z,0
2016-12-08T01:37:08.539Z,0
2016-12-08T01:38:19.047Z,0
2016-12-08T01:39:29.451Z,0
2016-12-08T01:40:40.335Z,0
2016-12-08T01:41:50.749Z,0
2016-12-08T01:43:01.629Z,0
2016-12-08T01:44:12.243Z,0
2016-12-08T01:45:22.658Z,0
2016-12-08T01:46:33.067Z,0
2016-12-08T01:47:43.474Z,0
2016-12-08T01:48:54.072Z,0
2016-12-08T01:50:04.473Z,0
2016-12-08T01:51:15.374Z,0
2016-12-08T01:52:25.782Z,0
2016-12-08T01:53:36.179Z,0
2016-12-08T01:54:46.577Z,0
2016-12-08T01:55:57.168Z,0
2016-12-08T01:57:07.803Z,0
2016-12-08T01:58:32.755Z,0
2016-12-08T01:59:43.133Z,0
2016-12-08T02:00:53.525Z,0
2016-12-08T02:02:03.923Z,0
2016-12-08T02:03:14.313Z,0
2016-12-08T02:04:24.697Z,0
2016-12-08T02:05:35.099Z,0
2016-12-08T02:06:45.688Z,0
2016-12-08T02:07:56.080Z,0
2016-12-08T02:09:06.479Z,0
2016-12-08T02:10:16.884Z,0
2016-12-08T02:11:27.279Z,0
2016-12-08T02:14:03.137Z,0
2016-12-08T02:15:13.543Z,0
2016-12-08T02:16:23.940Z,0
2016-12-08T02:17:34.513Z,0
2016-12-08T02:18:45.112Z,0
2016-12-08T02:21:35.015Z,0
2016-12-08T02:22:45.414Z,0
2016-12-08T02:23:55.810Z,0
2016-12-08T02:25:06.198Z,0
2016-12-08T02:26:16.630Z,0
2016-12-08T02:27:27.030Z,0
2016-12-08T02:28:37.418Z,0
2016-12-08T02:29:47.817Z,0
2016-12-08T02:30:58.208Z,0
2016-12-08T02:32:08.593Z,0
2016-12-08T02:33:18.968Z,0
2016-12-08T02:34:29.454Z,0
2016-12-08T02:35:39.848Z,0
2016-12-08T02:36:50.262Z,0
2016-12-08T02:39:25.795Z,0
2016-12-08T02:40:36.188Z,0
2016-12-08T02:41:46.572Z,0
2016-12-08T02:42:56.976Z,0
2016-12-08T02:44:07.377Z,0
2016-12-08T02:45:17.953Z,0
2016-12-08T02:46:28.331Z,0
2016-12-08T02:47:38.736Z,0
2016-12-08T02:48:49.132Z,0
2016-12-08T02:49:59.515Z,0
2016-12-08T02:51:09.899Z,0
2016-12-08T02:52:20.295Z,0
2016-12-08T02:53:30.682Z,0
2016-12-08T02:54:41.081Z,0
2016-12-08T02:55:51.467Z,0
2016-12-08T02:57:02.065Z,0
2016-12-08T02:58:26.994Z,0
2016-12-08T03:01:02.325Z,0
2016-12-08T03:02:12.713Z,0
2016-12-08T03:03:23.111Z,0
2016-12-08T03:04:33.501Z,0
2016-12-08T03:05:44.102Z,0
2016-12-08T03:06:54.484Z,0
2016-12-08T03:08:05.077Z,0
2016-12-08T03:09:15.463Z,0
2016-12-08T03:10:26.090Z,0
2016-12-08T03:11:36.482Z,0
2016-12-08T03:12:46.880Z,0
2016-12-08T03:14:11.927Z,0
2016-12-08T03:15:22.815Z,0
2016-12-08T03:16:33.209Z,0
2016-12-08T03:17:43.611Z,0
2016-12-08T03:18:54.196Z,0
2016-12-08T03:20:04.965Z,0
2016-12-08T03:21:15.349Z,0
2016-12-08T03:22:25.729Z,0
2016-12-08T03:23:50.871Z,0
2016-12-08T03:25:01.250Z,0
2016-12-08T03:26:11.639Z,0
2016-12-08T03:27:22.031Z,0
2016-12-08T03:28:32.402Z,0
2016-12-08T03:29:43.016Z,0
2016-12-08T03:30:53.801Z,0
2016-12-08T03:32:04.195Z,0
2016-12-08T03:33:14.682Z,0
2016-12-08T03:34:25.197Z,0
2016-12-08T03:35:36.141Z,0
2016-12-08T03:36:46.877Z,0
2016-12-08T03:37:57.372Z,0
2016-12-08T03:39:07.871Z,0
2016-12-08T03:40:18.381Z,0
2016-12-08T03:41:29.089Z,0
2016-12-08T03:42:39.596Z,0
2016-12-08T03:43:50.292Z,0
2016-12-08T03:45:00.965Z,0
2016-12-08T03:46:11.651Z,0
2016-12-08T03:47:22.365Z,0
2016-12-08T03:48:33.357Z,0
2016-12-08T03:49:43.861Z,0
2016-12-08T03:50:54.577Z,0
2016-12-08T03:52:05.087Z,0
2016-12-08T03:53:15.588Z,0
2016-12-08T03:54:26.117Z,0
2016-12-08T03:55:36.624Z,0
2016-12-08T03:56:47.148Z,0
2016-12-08T03:57:57.651Z,0
2016-12-08T03:59:08.345Z,0
2016-12-08T04:00:18.839Z,0
2016-12-08T04:01:29.375Z,0
2016-12-08T04:02:39.876Z,0
2016-12-08T04:03:50.380Z,0
2016-12-08T04:05:00.889Z,0
2016-12-08T04:06:11.398Z,0
2016-12-08T04:07:21.899Z,0
2016-12-08T04:08:32.404Z,0
2016-12-08T04:09:57.645Z,0
2016-12-08T04:11:08.137Z,0
2016-12-08T04:12:18.614Z,0
2016-12-08T04:13:43.640Z,0
2016-12-08T04:14:54.124Z,0
2016-12-08T04:16:04.604Z,0
2016-12-08T04:17:15.095Z,0
2016-12-08T04:18:25.568Z,0
2016-12-08T04:19:36.058Z,0
2016-12-08T04:20:46.548Z,0
2016-12-08T04:21:57.043Z,0
2016-12-08T04:23:07.764Z,0
2016-12-08T04:24:18.267Z,0
2016-12-08T04:25:28.771Z,0
2016-12-08T04:26:39.263Z,0
2016-12-08T04:27:49.869Z,0
2016-12-08T04:29:00.558Z,0
2016-12-08T04:30:11.072Z,0
2016-12-08T04:31:36.762Z,0
2016-12-08T04:33:02.164Z,0
2016-12-08T04:34:12.884Z,0
2016-12-08T04:35:23.561Z,0
2016-12-08T04:36:34.260Z,0
2016-12-08T04:37:44.951Z,0
2016-12-08T04:38:55.856Z,0
2016-12-08T04:40:06.618Z,0
2016-12-08T04:41:17.292Z,0
2016-12-08T04:42:27.954Z,0
2016-12-08T04:43:39.139Z,0
2016-12-08T04:44:50.025Z,0
2016-12-08T04:46:00.648Z,0
2016-12-08T04:47:11.272Z,0
2016-12-08T04:48:36.350Z,0
2016-12-08T04:49:47.123Z,0
2016-12-08T04:50:57.829Z,0
2016-12-08T04:52:08.480Z,0
2016-12-08T04:53:19.001Z,0
2016-12-08T04:54:29.462Z,0
2016-12-08T04:55:39.930Z,0
2016-12-08T04:56:50.391Z,0
2016-12-08T04:58:00.856Z,0
2016-12-08T04:59:11.303Z,0
2016-12-08T05:00:21.760Z,0
2016-12-08T05:01:32.199Z,0
2016-12-08T05:02:42.646Z,0
2016-12-08T05:03:53.087Z,0
2016-12-08T05:05:03.525Z,0
2016-12-08T05:06:13.962Z,0
2016-12-08T05:07:24.602Z,0
2016-12-08T05:08:35.040Z,0
2016-12-08T05:09:45.477Z,0
2016-12-08T05:11:10.457Z,0
2016-12-08T05:12:20.896Z,0
2016-12-08T05:13:31.340Z,0
2016-12-08T05:14:41.780Z,0
2016-12-08T05:15:52.217Z,0
2016-12-08T05:17:02.651Z,0
2016-12-08T05:18:13.297Z,0
2016-12-08T05:19:23.738Z,0
2016-12-08T05:20:34.173Z,0
2016-12-08T05:21:44.616Z,0
2016-12-08T05:22:55.048Z,0
2016-12-08T05:24:05.485Z,0
2016-12-08T05:25:30.499Z,0
2016-12-08T05:26:40.937Z,0
2016-12-08T05:29:16.557Z,0
2016-12-08T05:30:26.994Z,0
2016-12-08T05:31:37.433Z,0
2016-12-08T05:32:47.877Z,0
2016-12-08T05:33:58.310Z,0
2016-12-08T05:35:08.949Z,0
2016-12-08T05:36:19.388Z,0
2016-12-08T05:37:29.826Z,0
2016-12-08T05:38:40.264Z,0
2016-12-08T05:39:50.701Z,0
2016-12-08T05:41:01.141Z,0
2016-12-08T05:42:11.581Z,0
2016-12-08T05:43:22.022Z,0
2016-12-08T05:44:32.455Z,0
2016-12-08T05:45:42.891Z,0
2016-12-08T05:46:53.528Z,0
2016-12-08T05:48:03.965Z,0
2016-12-08T05:49:14.408Z,0
2016-12-08T05:50:24.842Z,0
2016-12-08T05:51:35.281Z,0
2016-12-08T05:52:45.918Z,0
2016-12-08T05:53:56.384Z,0
2016-12-08T05:55:06.823Z,0
2016-12-08T05:56:17.261Z,0
2016-12-08T05:57:27.695Z,0
2016-12-08T05:58:38.328Z,0
2016-12-08T05:59:48.764Z,0
2016-12-08T06:00:59.199Z,0
2016-12-08T06:02:09.633Z,0
2016-12-08T06:03:20.070Z,0
2016-12-08T06:04:30.513Z,0
2016-12-08T06:05:41.442Z,0
2016-12-08T06:06:51.873Z,0
2016-12-08T06:08:02.304Z,0
2016-12-08T06:09:12.748Z,0
2016-12-08T06:11:48.372Z,0
2016-12-08T06:13:13.350Z,0
2016-12-08T06:14:23.702Z,0
2016-12-08T06:15:34.071Z,0
2016-12-08T06:16:44.414Z,0
2016-12-08T06:18:09.319Z,0
2016-12-08T06:19:19.692Z,0
2016-12-08T06:20:30.059Z,0
2016-12-08T06:21:40.385Z,0
2016-12-08T06:22:50.745Z,0
2016-12-08T06:24:01.090Z,0
2016-12-08T06:25:11.429Z,0
2016-12-08T06:26:21.943Z,0
2016-12-08T06:27:32.321Z,0
2016-12-08T06:28:42.673Z,0
2016-12-08T06:29:53.015Z,0
2016-12-08T06:31:03.379Z,0
2016-12-08T06:32:28.487Z,0
2016-12-08T06:33:38.805Z,0
2016-12-08T06:34:49.209Z,0
2016-12-08T06:35:59.571Z,0
2016-12-08T06:37:10.123Z,0
2016-12-08T06:38:20.528Z,0
2016-12-08T06:39:30.877Z,0
2016-12-08T06:40:41.241Z,0
2016-12-08T06:41:51.637Z,0
2016-12-08T06:43:02.222Z,0
2016-12-08T06:44:12.574Z,0
2016-12-08T06:45:22.935Z,0
2016-12-08T06:46:33.287Z,0
2016-12-08T06:47:43.662Z,0
2016-12-08T06:48:54.254Z,0
2016-12-08T06:50:04.640Z,0
2016-12-08T06:51:29.526Z,0
2016-12-08T06:52:39.922Z,0
2016-12-08T06:53:50.487Z,0
2016-12-08T06:55:00.847Z,0
2016-12-08T06:56:11.241Z,0
2016-12-08T06:57:21.628Z,0
2016-12-08T06:58:31.988Z,0
2016-12-08T06:59:42.386Z,0
2016-12-08T07:00:52.783Z,0
2016-12-08T07:02:03.185Z,0
2016-12-08T07:03:13.560Z,0
2016-12-08T07:04:23.903Z,0
2016-12-08T07:05:48.786Z,0
2016-12-08T07:06:59.128Z,0
2016-12-08T07:08:09.468Z,0
2016-12-08T07:09:19.841Z,0
2016-12-08T07:10:44.749Z,0
2016-12-08T07:11:55.102Z,0
2016-12-08T07:13:05.430Z,0
2016-12-08T07:14:30.340Z,0
2016-12-08T07:15:40.677Z,0
2016-12-08T07:16:51.041Z,0
2016-12-08T07:18:01.417Z,0
2016-12-08T07:19:26.360Z,0
2016-12-08T07:20:36.952Z,0
2016-12-08T07:21:47.342Z,0
2016-12-08T07:22:57.761Z,0
2016-12-08T07:24:08.211Z,0
2016-12-08T07:25:18.562Z,0
2016-12-08T07:26:28.942Z,0
2016-12-08T07:27:39.322Z,0
2016-12-08T07:28:49.762Z,0
2016-12-08T07:30:00.622Z,0
2016-12-08T07:31:11.050Z,0
2016-12-08T07:32:21.691Z,0
2016-12-08T07:33:32.130Z,0
2016-12-08T07:34:42.566Z,0
2016-12-08T07:35:53.007Z,0
2016-12-08T07:37:03.932Z,0
2016-12-08T07:38:14.504Z,0
2016-12-08T07:39:24.821Z,0
2016-12-08T07:40:49.712Z,0
2016-12-08T07:42:00.038Z,0
2016-12-08T07:43:10.553Z,0
2016-12-08T07:44:20.869Z,0
2016-12-08T07:45:31.308Z,0
2016-12-08T07:46:41.716Z,0
2016-12-08T07:47:52.125Z,0
2016-12-08T07:49:02.733Z,0
2016-12-08T07:50:13.147Z,0
2016-12-08T07:51:23.557Z,0
2016-12-08T07:52:33.968Z,0
2016-12-08T07:53:44.372Z,0
2016-12-08T07:54:54.979Z,0
2016-12-08T07:56:05.388Z,0
2016-12-08T07:58:55.303Z,0
2016-12-08T08:01:30.676Z,0
2016-12-08T08:02:41.084Z,0
2016-12-08T08:03:51.495Z,0
2016-12-08T08:05:02.100Z,0
2016-12-08T08:06:12.513Z,0
2016-12-08T08:07:22.921Z,0
2016-12-08T08:08:33.327Z,0
2016-12-08T08:09:43.737Z,0
2016-12-08T08:10:54.144Z,0
2016-12-08T08:12:04.548Z,0
2016-12-08T08:13:14.962Z,0
2016-12-08T08:14:25.369Z,0
2016-12-08T08:15:35.776Z,0
2016-12-08T08:16:46.387Z,0
2016-12-08T08:17:56.797Z,0
2016-12-08T08:19:07.205Z,0
2016-12-08T08:20:17.612Z,0
2016-12-08T08:21:28.018Z,0
2016-12-08T08:22:38.426Z,0
2016-12-08T08:24:03.386Z,0
2016-12-08T08:25:13.800Z,0
2016-12-08T08:26:24.207Z,0
2016-12-08T08:27:34.613Z,0
2016-12-08T08:28:45.027Z,0
2016-12-08T08:29:55.440Z,0
2016-12-08T08:31:05.763Z,0
2016-12-08T08:32:16.087Z,0
2016-12-08T08:33:27.080Z,0
2016-12-08T08:34:37.395Z,0
2016-12-08T08:35:47.712Z,0
2016-12-08T08:36:58.032Z,0
2016-12-08T08:38:08.354Z,0
2016-12-08T08:39:18.871Z,0
2016-12-08T08:40:29.187Z,5
2016-12-08T08:41:39.506Z,5
2016-12-08T08:42:49.835Z,5
2016-12-08T08:44:00.179Z,5
2016-12-08T08:45:10.497Z,5
2016-12-08T08:46:20.817Z,5
2016-12-08T08:47:31.135Z,5
2016-12-08T08:48:41.452Z,5
2016-12-08T08:49:52.261Z,5
2016-12-08T08:51:02.578Z,5
2016-12-08T08:52:12.895Z,5
2016-12-08T08:53:23.212Z,5
2016-12-08T08:54:33.529Z,5
2016-12-08T08:55:43.845Z,5
2016-12-08T08:56:54.165Z,5
2016-12-08T08:59:43.932Z,5
2016-12-08T09:01:08.819Z,5
2016-12-08T09:02:19.335Z,5
2016-12-08T09:03:29.651Z,5
2016-12-08T09:04:39.967Z,5
2016-12-08T09:05:50.286Z,5
2016-12-08T09:07:00.605Z,10
2016-12-08T09:08:11.128Z,10
2016-12-08T09:09:21.449Z,10
2016-12-08T09:10:31.766Z,10
2016-12-08T09:11:42.083Z,15
2016-12-08T09:12:52.396Z,15
2016-12-08T09:14:02.713Z,10
2016-12-08T09:15:13.052Z,10
2016-12-08T09:16:23.465Z,15
2016-12-08T09:17:33.874Z,15
2016-12-08T09:18:44.282Z,15
2016-12-08T09:19:54.919Z,15
2016-12-08T09:21:05.326Z,15
2016-12-08T09:22:30.281Z,15
2016-12-08T09:23:40.691Z,20
2016-12-08T09:24:51.298Z,20
2016-12-08T09:26:02.192Z,20
2016-12-08T09:27:12.600Z,20
2016-12-08T09:28:23.007Z,20
2016-12-08T09:29:33.417Z,15
2016-12-08T09:30:43.824Z,15
2016-12-08T09:31:54.262Z,15
2016-12-08T09:33:05.172Z,15
2016-12-08T09:34:15.579Z,15
2016-12-08T09:35:25.995Z,15
2016-12-08T09:36:36.609Z,15
2016-12-08T09:37:47.019Z,15
2016-12-08T09:38:57.429Z,15
2016-12-08T09:40:07.839Z,15
2016-12-08T09:41:18.246Z,15
2016-12-08T09:42:28.856Z,15
2016-12-08T09:43:39.264Z,15
2016-12-08T09:44:49.671Z,15
2016-12-08T09:46:00.565Z,15
2016-12-08T09:47:10.975Z,15
2016-12-08T09:48:21.617Z,15
2016-12-08T09:49:32.031Z,15
2016-12-08T09:50:42.435Z,10
2016-12-08T09:51:52.847Z,10
2016-12-08T09:53:03.256Z,10
2016-12-08T09:54:13.668Z,10
2016-12-08T09:55:24.075Z,10
2016-12-08T09:56:34.482Z,10
2016-12-08T09:57:44.894Z,10
2016-12-08T09:58:55.408Z,10
2016-12-08T10:00:06.136Z,10
2016-12-08T10:01:16.577Z,15
2016-12-08T10:02:27.010Z,15
2016-12-08T10:03:37.448Z,10
2016-12-08T10:04:47.886Z,15
2016-12-08T10:05:58.523Z,15
2016-12-08T10:07:08.965Z,20
2016-12-08T10:08:19.403Z,20
2016-12-08T10:09:29.838Z,20
2016-12-08T10:10:40.276Z,15
2016-12-08T10:11:50.917Z,15
2016-12-08T10:13:02.330Z,15
2016-12-08T10:14:12.768Z,15
2016-12-08T10:15:23.237Z,20
2016-12-08T10:16:33.674Z,15
2016-12-08T10:17:44.315Z,15
2016-12-08T10:18:54.751Z,20
2016-12-08T10:20:05.698Z,20
2016-12-08T10:21:16.163Z,20
2016-12-08T10:22:26.602Z,20
2016-12-08T10:23:37.530Z,20
2016-12-08T10:24:47.998Z,15
2016-12-08T10:26:12.980Z,15
2016-12-08T10:27:37.963Z,20
2016-12-08T10:28:48.396Z,15
2016-12-08T10:29:58.844Z,15
2016-12-08T10:31:09.283Z,20
2016-12-08T10:32:19.721Z,20
2016-12-08T10:33:30.082Z,20
2016-12-08T10:34:41.024Z,20
2016-12-08T10:35:51.345Z,20
2016-12-08T10:37:01.673Z,20
2016-12-08T10:38:11.993Z,20
2016-12-08T10:39:22.313Z,20
2016-12-08T10:40:32.630Z,20
2016-12-08T10:41:42.961Z,20
2016-12-08T10:42:53.283Z,20
2016-12-08T10:44:03.600Z,20
2016-12-08T10:45:13.921Z,20
2016-12-08T10:46:24.447Z,20
2016-12-08T10:47:34.766Z,20
2016-12-08T10:48:45.083Z,20
2016-12-08T10:49:55.407Z,20
2016-12-08T10:51:05.726Z,20
2016-12-08T10:52:16.244Z,20
2016-12-08T10:53:26.563Z,20
2016-12-08T10:54:36.882Z,20
2016-12-08T10:55:47.201Z,20
2016-12-08T10:56:57.551Z,20
2016-12-08T10:58:07.865Z,20
2016-12-08T10:59:18.182Z,20
2016-12-08T11:00:28.502Z,20
2016-12-08T11:01:38.829Z,20
2016-12-08T11:02:49.147Z,20
2016-12-08T11:03:59.470Z,20
2016-12-08T11:05:09.787Z,20
2016-12-08T11:06:20.108Z,20
2016-12-08T11:07:30.429Z,20
2016-12-08T11:08:40.753Z,25
2016-12-08T11:09:51.177Z,25
2016-12-08T11:11:01.610Z,25
2016-12-08T11:12:12.051Z,30
2016-12-08T11:13:22.489Z,30
2016-12-08T11:14:32.930Z,30
2016-12-08T11:15:43.570Z,30
2016-12-08T11:16:54.016Z,30
2016-12-08T11:18:04.458Z,35
2016-12-08T11:19:14.890Z,35
2016-12-08T11:20:25.323Z,35
2016-12-08T11:21:50.502Z,35
2016-12-08T11:23:01.682Z,35
2016-12-08T11:24:12.118Z,35
2016-12-08T11:25:22.549Z,40
2016-12-08T11:26:33.184Z,40
2016-12-08T11:27:43.619Z,40
2016-12-08T11:28:54.051Z,40
2016-12-08T11:30:04.546Z,45
2016-12-08T11:31:15.086Z,45
2016-12-08T11:32:25.816Z,45
2016-12-08T11:33:36.344Z,45
2016-12-08T11:34:46.877Z,45
2016-12-08T11:35:57.402Z,50
2016-12-08T11:37:22.457Z,45
2016-12-08T11:38:32.990Z,45
2016-12-08T11:39:58.047Z,45
2016-12-08T11:41:08.580Z,45
2016-12-08T11:43:44.372Z,50
2016-12-08T11:44:54.907Z,50
2016-12-08T11:46:05.439Z,50
2016-12-08T11:47:15.971Z,55
2016-12-08T11:48:26.501Z,55
2016-12-08T11:49:37.231Z,55
2016-12-08T11:50:47.766Z,60
2016-12-08T11:51:58.296Z,55
2016-12-08T11:53:09.351Z,60
2016-12-08T11:54:19.882Z,60
2016-12-08T11:55:30.650Z,60
2016-12-08T11:56:41.186Z,65
2016-12-08T11:57:51.714Z,65
2016-12-08T11:59:02.244Z,65
2016-12-08T12:00:12.777Z,60
2016-12-08T12:02:48.573Z,65
2016-12-08T12:03:59.101Z,65
2016-12-08T12:05:10.139Z,65
2016-12-08T12:06:20.877Z,65
2016-12-08T12:07:31.435Z,65
2016-12-08T12:08:41.967Z,65
2016-12-08T12:09:52.500Z,65
2016-12-08T12:12:28.292Z,65
2016-12-08T12:13:38.826Z,65
2016-12-08T12:14:49.358Z,65
2016-12-08T12:15:59.807Z,65
2016-12-08T12:17:10.246Z,65
2016-12-08T12:18:20.689Z,65
2016-12-08T12:19:31.127Z,65
2016-12-08T12:20:56.120Z,65
2016-12-08T12:22:07.056Z,65
2016-12-08T12:24:42.678Z,75
2016-12-08T12:26:22.213Z,65
2016-12-08T12:27:47.202Z,70
2016-12-08T12:28:57.848Z,70
2016-12-08T12:30:08.285Z,70
2016-12-08T12:31:33.269Z,75
2016-12-08T12:32:43.706Z,75
2016-12-08T12:33:54.144Z,75
2016-12-08T12:35:04.588Z,75
2016-12-08T12:36:15.033Z,75
2016-12-08T12:37:55.056Z,70
2016-12-08T12:39:05.702Z,75
2016-12-08T12:40:16.643Z,75
2016-12-08T12:41:27.081Z,75
2016-12-08T12:42:38.015Z,80
2016-12-08T12:43:48.452Z,75
2016-12-08T12:45:13.640Z,75
2016-12-08T12:46:24.077Z,80
2016-12-08T12:47:34.522Z,75
2016-12-08T12:48:44.974Z,75
2016-12-08T12:49:56.316Z,80
2016-12-08T12:51:06.905Z,75
2016-12-08T12:53:42.259Z,80
2016-12-08T12:54:52.782Z,75
2016-12-08T12:56:03.711Z,80
2016-12-08T12:57:14.032Z,80
2016-12-08T12:58:24.374Z,80
2016-12-08T12:59:34.696Z,75
2016-12-08T13:00:45.220Z,85
2016-12-08T13:01:56.047Z,80
2016-12-08T13:04:31.277Z,85
2016-12-08T13:05:41.803Z,80
2016-12-08T13:06:52.127Z,80
2016-12-08T13:08:02.458Z,85
2016-12-08T13:09:12.783Z,80
2016-12-08T13:10:23.133Z,85
2016-12-08T13:11:33.659Z,80
2016-12-08T13:12:43.984Z,95
2016-12-08T13:13:54.309Z,85
2016-12-08T13:15:04.632Z,85
2016-12-08T13:16:14.957Z,85
2016-12-08T13:17:25.480Z,80
2016-12-08T13:18:35.839Z,80
2016-12-08T13:19:46.330Z,75
2016-12-08T13:20:56.653Z,80
2016-12-08T13:22:07.456Z,80
2016-12-08T13:23:17.983Z,85
2016-12-08T13:27:35.199Z,80
2016-12-08T13:28:45.535Z,80
2016-12-08T13:29:55.876Z,85
2016-12-08T13:31:06.206Z,85
2016-12-08T13:32:16.536Z,85
2016-12-08T13:33:26.862Z,85
2016-12-08T13:34:37.392Z,85
2016-12-08T13:36:02.289Z,85
2016-12-08T13:37:12.615Z,85
2016-12-08T13:38:22.937Z,85
2016-12-08T13:39:33.299Z,85
2016-12-08T13:40:43.626Z,85
2016-12-08T13:41:53.953Z,85
2016-12-08T13:43:04.280Z,85
2016-12-08T13:44:14.604Z,85
2016-12-08T13:45:39.983Z,90
2016-12-08T13:46:50.307Z,85
2016-12-08T13:48:01.105Z,85
2016-12-08T13:49:26.001Z,85
2016-12-08T13:50:36.527Z,85
2016-12-08T13:51:46.855Z,90
2016-12-08T13:53:11.747Z,85
2016-12-08T13:54:23.044Z,85
2016-12-08T13:55:33.573Z,85
2016-12-08T13:56:58.467Z,85
2016-12-08T13:58:09.270Z,85
2016-12-08T13:59:20.072Z,85
2016-12-08T14:00:30.599Z,85
2016-12-08T14:01:55.495Z,85
2016-12-08T14:03:05.832Z,85
2016-12-08T14:04:16.643Z,85
2016-12-08T14:05:41.750Z,85
2016-12-08T14:06:52.089Z,85
2016-12-08T14:08:02.429Z,85
2016-12-08T14:09:27.341Z,85
2016-12-08T14:10:37.887Z,85
2016-12-08T14:11:48.711Z,90
2016-12-08T14:12:59.044Z,85
2016-12-08T15:18:49.459Z,85
2016-12-08T15:20:00.021Z,85
2016-12-08T15:21:10.576Z,85
2016-12-08T15:22:21.136Z,85
2016-12-08T15:23:31.688Z,85
2016-12-08T15:24:42.751Z,30
2016-12-08T15:25:53.809Z,30
2016-12-08T15:27:04.394Z,85
2016-12-08T15:28:14.953Z,85
2016-12-08T15:29:25.508Z,25
2016-12-08T15:30:50.597Z,25
2016-12-08T15:32:01.145Z,25
2016-12-08T15:33:11.694Z,85
2016-12-08T15:34:22.250Z,85
2016-12-08T15:35:33.017Z,85
2016-12-08T15:36:43.591Z,85
2016-12-08T15:37:54.143Z,80
2016-12-08T15:39:04.717Z,80
2016-12-08T15:40:15.314Z,80
2016-12-08T15:41:26.095Z,75
2016-12-08T15:42:36.674Z,70
2016-12-08T15:44:01.764Z,70
2016-12-08T15:45:26.833Z,70
2016-12-08T15:46:37.520Z,70
2016-12-08T15:47:48.079Z,70
2016-12-08T15:51:29.515Z,60
2016-12-08T15:52:40.089Z,60
2016-12-08T15:53:50.674Z,60
2016-12-08T15:55:01.252Z,60
2016-12-08T15:56:26.345Z,60
2016-12-08T15:57:51.443Z,25
2016-12-08T15:59:02.010Z,25
2016-12-08T16:00:13.511Z,60
2016-12-08T16:01:23.978Z,35
2016-12-08T16:02:49.092Z,60
2016-12-08T16:03:59.564Z,65
2016-12-08T16:05:10.022Z,60
2016-12-08T16:06:20.498Z,60
2016-12-08T16:07:30.952Z,60
2016-12-08T16:08:41.508Z,55
2016-12-08T16:09:51.958Z,50
2016-12-08T16:11:02.449Z,70
2016-12-08T16:12:12.948Z,40
2016-12-08T16:13:38.069Z,50
2016-12-08T16:15:03.091Z,45
2016-12-08T16:16:13.572Z,30
2016-12-08T16:17:24.059Z,30
2016-12-08T16:18:49.171Z,40
2016-12-08T16:19:59.642Z,55
2016-12-08T16:21:10.128Z,65
2016-12-08T16:22:20.588Z,65
2016-12-08T16:23:45.718Z,50
2016-12-08T16:24:56.198Z,35
2016-12-08T16:26:07.159Z,60
2016-12-08T16:27:17.633Z,65
2016-12-08T16:28:28.103Z,70
2016-12-08T16:29:38.678Z,60
2016-12-08T16:30:49.146Z,60
2016-12-08T16:31:59.631Z,60
2016-12-08T16:33:10.097Z,60
2016-12-08T16:34:20.586Z,55
2016-12-08T16:35:31.456Z,60
2016-12-08T16:36:41.918Z,55
2016-12-08T16:37:52.395Z,55
2016-12-08T16:39:02.891Z,55
2016-12-08T16:40:28.109Z,55
2016-12-08T16:41:38.587Z,60
2016-12-08T16:42:49.079Z,55
2016-12-08T16:43:59.587Z,30
2016-12-08T16:45:10.062Z,25
2016-12-08T16:46:20.551Z,30
2016-12-08T16:47:31.025Z,30
2016-12-08T16:48:41.512Z,35
2016-12-08T16:49:51.980Z,65
2016-12-08T16:51:02.516Z,65
2016-12-08T16:52:27.649Z,55
2016-12-08T16:53:38.133Z,55
2016-12-08T16:56:13.617Z,55
2016-12-08T16:57:38.837Z,55
2016-12-08T16:58:49.325Z,55
2016-12-08T16:59:59.789Z,55
2016-12-08T17:01:10.281Z,55
2016-12-08T17:02:20.858Z,30
2016-12-08T17:03:31.320Z,30
2016-12-08T17:04:42.281Z,35
2016-12-08T17:05:52.770Z,60
2016-12-08T17:07:03.259Z,60
2016-12-08T17:08:13.954Z,60
2016-12-08T17:09:24.435Z,55
2016-12-08T17:10:34.926Z,55
2016-12-08T17:11:45.411Z,55
2016-12-08T17:13:10.646Z,50
2016-12-08T17:14:21.143Z,65
2016-12-08T17:15:31.635Z,55
2016-12-08T17:16:42.325Z,50
2016-12-08T17:17:52.858Z,30
2016-12-08T17:19:03.536Z,30
2016-12-08T17:20:14.001Z,45
2016-12-08T17:21:24.498Z,60
2016-12-08T17:22:34.979Z,45
2016-12-08T17:24:00.409Z,35
2016-12-08T17:25:10.898Z,35
2016-12-08T17:26:21.367Z,40
2016-12-08T17:27:31.852Z,55
2016-12-08T17:28:42.347Z,55
2016-12-08T17:29:53.125Z,55
2016-12-08T17:31:03.695Z,55
2016-12-08T17:32:14.277Z,55
2016-12-08T17:33:24.863Z,55
2016-12-08T17:34:35.427Z,55
2016-12-08T17:36:00.925Z,55
2016-12-08T17:37:26.021Z,55
2016-12-08T17:38:51.665Z,55
2016-12-08T17:40:02.234Z,55
2016-12-08T17:41:13.005Z,65
2016-12-08T17:42:23.567Z,60
2016-12-08T17:43:34.126Z,60
2016-12-08T17:44:45.395Z,50
2016-12-08T17:45:55.964Z,45
2016-12-08T17:47:07.247Z,60
2016-12-08T17:48:17.837Z,55
2016-12-08T17:49:28.415Z,60
2016-12-08T17:50:38.996Z,60
2016-12-08T17:51:49.571Z,55
2016-12-08T17:53:00.251Z,55
2016-12-08T17:54:10.837Z,55
2016-12-08T17:55:21.395Z,40
2016-12-08T17:56:31.981Z,40
2016-12-08T17:57:42.580Z,40
2016-12-08T17:58:53.187Z,40
2016-12-08T18:00:03.777Z,60
2016-12-08T18:01:14.350Z,60
2016-12-08T18:02:24.931Z,60
2016-12-08T18:03:35.520Z,40
2016-12-08T18:04:46.181Z,65
2016-12-08T18:05:56.749Z,65
2016-12-08T18:07:07.304Z,65
2016-12-08T18:08:18.375Z,60
2016-12-08T18:09:28.953Z,60
2016-12-08T18:10:39.618Z,35
2016-12-08T18:11:50.185Z,35
2016-12-08T18:13:00.753Z,35
2016-12-08T18:14:11.840Z,65
2016-12-08T18:15:22.424Z,70
2016-12-08T18:16:32.997Z,45
2016-12-08T18:17:43.988Z,70
2016-12-08T18:18:54.553Z,40
2016-12-08T18:20:05.131Z,35
2016-12-08T18:21:15.696Z,65
2016-12-08T18:22:40.997Z,55
2016-12-08T18:23:51.624Z,65
2016-12-08T18:25:02.195Z,65
2016-12-08T18:26:12.760Z,55
2016-12-08T18:27:23.542Z,45
2016-12-08T18:28:48.621Z,45
2016-12-08T18:29:59.195Z,30
2016-12-08T18:31:10.270Z,25
2016-12-08T18:32:21.449Z,40
2016-12-08T18:33:32.018Z,40
2016-12-08T18:34:42.613Z,30
2016-12-08T18:35:53.188Z,25
2016-12-08T18:37:03.768Z,25
2016-12-08T18:38:14.345Z,20
2016-12-08T18:39:24.963Z,20
2016-12-08T18:40:35.540Z,20
2016-12-08T18:42:00.632Z,20
2016-12-08T18:43:11.471Z,20
2016-12-08T18:44:22.903Z,20
2016-12-08T18:45:33.366Z,20
2016-12-08T18:46:43.828Z,20
2016-12-08T18:47:54.315Z,20
2016-12-08T18:49:04.857Z,20
2016-12-08T18:50:15.320Z,20
2016-12-08T18:51:25.780Z,20
2016-12-08T18:52:36.232Z,20
2016-12-08T18:53:46.694Z,20
2016-12-08T18:54:57.154Z,20